sensor_id;sensor_type;location;lat;lon;timestamp;temperature;humidity
72650;SHT31;61467;50.674;4.618;2023-04-15T00:02:15;11.25;63.62
72650;SHT31;61467;50.674;4.618;2023-04-15T00:04:44;11.19;64.05
72650;SHT31;61467;50.674;4.618;2023-04-15T00:07:11;11.18;63.90
72650;SHT31;61467;50.674;4.618;2023-04-15T00:09:38;11.18;63.91
72650;SHT31;61467;50.674;4.618;2023-04-15T00:12:05;11.19;63.66
72650;SHT31;61467;50.674;4.618;2023-04-15T00:14:33;11.23;63.78
72650;SHT31;61467;50.674;4.618;2023-04-15T00:17:00;11.22;63.67
72650;SHT31;61467;50.674;4.618;2023-04-15T00:19:28;11.19;63.90
72650;SHT31;61467;50.674;4.618;2023-04-15T00:21:56;11.18;64.37
72650;SHT31;61467;50.674;4.618;2023-04-15T00:24:23;11.16;64.45
72650;SHT31;61467;50.674;4.618;2023-04-15T00:26:50;11.25;64.46
72650;SHT31;61467;50.674;4.618;2023-04-15T00:29:17;11.23;64.21
72650;SHT31;61467;50.674;4.618;2023-04-15T00:31:43;11.19;64.24
72650;SHT31;61467;50.674;4.618;2023-04-15T00:34:10;11.18;64.46
72650;SHT31;61467;50.674;4.618;2023-04-15T00:36:37;11.18;64.25
72650;SHT31;61467;50.674;4.618;2023-04-15T00:39:05;11.20;64.26
72650;SHT31;61467;50.674;4.618;2023-04-15T00:41:32;11.20;64.08
72650;SHT31;61467;50.674;4.618;2023-04-15T00:43:59;11.26;64.24
72650;SHT31;61467;50.674;4.618;2023-04-15T00:46:27;11.26;64.26
72650;SHT31;61467;50.674;4.618;2023-04-15T00:48:55;11.32;64.48
72650;SHT31;61467;50.674;4.618;2023-04-15T00:51:22;11.26;64.19
72650;SHT31;61467;50.674;4.618;2023-04-15T00:53:50;11.29;64.77
72650;SHT31;61467;50.674;4.618;2023-04-15T00:56:19;11.29;64.84
72650;SHT31;61467;50.674;4.618;2023-04-15T00:58:48;11.20;65.26
72650;SHT31;61467;50.674;4.618;2023-04-15T01:01:17;11.27;65.58
72650;SHT31;61467;50.674;4.618;2023-04-15T01:03:46;11.20;66.17
72650;SHT31;61467;50.674;4.618;2023-04-15T01:06:13;11.18;66.26
72650;SHT31;61467;50.674;4.618;2023-04-15T01:08:41;11.20;65.86
72650;SHT31;61467;50.674;4.618;2023-04-15T01:11:08;11.16;66.80
72650;SHT31;61467;50.674;4.618;2023-04-15T01:13:37;11.18;66.81
72650;SHT31;61467;50.674;4.618;2023-04-15T01:16:05;11.12;67.29
72650;SHT31;61467;50.674;4.618;2023-04-15T01:18:33;11.16;67.86
72650;SHT31;61467;50.674;4.618;2023-04-15T01:21:00;11.13;67.61
72650;SHT31;61467;50.674;4.618;2023-04-15T01:23:28;11.05;67.33
72650;SHT31;61467;50.674;4.618;2023-04-15T01:25:56;11.09;67.97
72650;SHT31;61467;50.674;4.618;2023-04-15T01:28:24;11.08;68.01
72650;SHT31;61467;50.674;4.618;2023-04-15T01:31:04;11.09;68.17
72650;SHT31;61467;50.674;4.618;2023-04-15T01:33:31;11.05;67.72
72650;SHT31;61467;50.674;4.618;2023-04-15T01:35:58;11.08;67.60
72650;SHT31;61467;50.674;4.618;2023-04-15T01:38:26;10.99;66.94
72650;SHT31;61467;50.674;4.618;2023-04-15T01:40:53;10.88;67.33
72650;SHT31;61467;50.674;4.618;2023-04-15T01:43:21;10.86;67.27
72650;SHT31;61467;50.674;4.618;2023-04-15T01:45:48;10.75;67.62
72650;SHT31;61467;50.674;4.618;2023-04-15T01:48:15;10.86;66.63
72650;SHT31;61467;50.674;4.618;2023-04-15T01:50:42;10.71;67.25
72650;SHT31;61467;50.674;4.618;2023-04-15T01:53:09;10.60;67.91
72650;SHT31;61467;50.674;4.618;2023-04-15T01:55:36;10.72;67.75
72650;SHT31;61467;50.674;4.618;2023-04-15T01:58:03;10.64;67.97
72650;SHT31;61467;50.674;4.618;2023-04-15T02:00:31;10.50;68.56
72650;SHT31;61467;50.674;4.618;2023-04-15T02:02:57;10.58;68.95
72650;SHT31;61467;50.674;4.618;2023-04-15T02:05:24;10.17;69.53
72650;SHT31;61467;50.674;4.618;2023-04-15T02:07:52;10.30;69.11
72650;SHT31;61467;50.674;4.618;2023-04-15T02:10:19;10.34;68.89
72650;SHT31;61467;50.674;4.618;2023-04-15T02:12:46;10.37;68.88
72650;SHT31;61467;50.674;4.618;2023-04-15T02:15:12;10.18;69.60
72650;SHT31;61467;50.674;4.618;2023-04-15T02:17:41;10.32;69.39
72650;SHT31;61467;50.674;4.618;2023-04-15T02:20:10;10.47;69.57
72650;SHT31;61467;50.674;4.618;2023-04-15T02:22:37;10.44;69.18
72650;SHT31;61467;50.674;4.618;2023-04-15T02:25:05;10.57;68.90
72650;SHT31;61467;50.674;4.618;2023-04-15T02:27:32;10.68;68.71
72650;SHT31;61467;50.674;4.618;2023-04-15T02:29:59;10.75;69.31
72650;SHT31;61467;50.674;4.618;2023-04-15T02:32:29;10.76;68.55
72650;SHT31;61467;50.674;4.618;2023-04-15T02:35:01;10.74;69.08
72650;SHT31;61467;50.674;4.618;2023-04-15T02:37:28;10.79;69.19
72650;SHT31;61467;50.674;4.618;2023-04-15T02:39:56;10.75;69.34
72650;SHT31;61467;50.674;4.618;2023-04-15T02:42:23;10.78;69.99
72650;SHT31;61467;50.674;4.618;2023-04-15T02:44:52;10.74;70.05
72650;SHT31;61467;50.674;4.618;2023-04-15T02:47:19;10.74;70.24
72650;SHT31;61467;50.674;4.618;2023-04-15T02:49:46;10.78;69.57
72650;SHT31;61467;50.674;4.618;2023-04-15T02:52:14;10.55;70.09
72650;SHT31;61467;50.674;4.618;2023-04-15T02:54:41;10.67;70.01
72650;SHT31;61467;50.674;4.618;2023-04-15T02:57:08;10.63;70.06
72650;SHT31;61467;50.674;4.618;2023-04-15T02:59:36;10.67;70.14
72650;SHT31;61467;50.674;4.618;2023-04-15T03:02:03;10.67;69.97
72650;SHT31;61467;50.674;4.618;2023-04-15T03:04:32;10.58;70.56
72650;SHT31;61467;50.674;4.618;2023-04-15T03:07:00;10.61;70.60
72650;SHT31;61467;50.674;4.618;2023-04-15T03:09:28;10.60;70.61
72650;SHT31;61467;50.674;4.618;2023-04-15T03:11:55;10.32;71.35
72650;SHT31;61467;50.674;4.618;2023-04-15T03:14:22;10.26;72.05
72650;SHT31;61467;50.674;4.618;2023-04-15T03:16:49;10.03;72.97
72650;SHT31;61467;50.674;4.618;2023-04-15T03:19:16;9.97;73.60
72650;SHT31;61467;50.674;4.618;2023-04-15T03:21:43;9.93;73.66
72650;SHT31;61467;50.674;4.618;2023-04-15T03:24:10;10.06;72.96
72650;SHT31;61467;50.674;4.618;2023-04-15T03:26:38;10.20;72.46
72650;SHT31;61467;50.674;4.618;2023-04-15T03:29:05;10.32;72.25
72650;SHT31;61467;50.674;4.618;2023-04-15T03:31:32;10.33;72.24
72650;SHT31;61467;50.674;4.618;2023-04-15T03:33:59;10.23;72.56
72650;SHT31;61467;50.674;4.618;2023-04-15T03:36:27;10.03;73.10
72650;SHT31;61467;50.674;4.618;2023-04-15T03:38:54;10.04;73.10
72650;SHT31;61467;50.674;4.618;2023-04-15T03:41:22;10.10;72.77
72650;SHT31;61467;50.674;4.618;2023-04-15T03:43:50;9.99;72.98
72650;SHT31;61467;50.674;4.618;2023-04-15T03:46:17;9.87;73.05
72650;SHT31;61467;50.674;4.618;2023-04-15T03:48:44;9.90;72.55
72650;SHT31;61467;50.674;4.618;2023-04-15T03:51:11;9.89;72.87
72650;SHT31;61467;50.674;4.618;2023-04-15T03:53:38;9.92;72.45
72650;SHT31;61467;50.674;4.618;2023-04-15T03:56:05;9.82;72.53
72650;SHT31;61467;50.674;4.618;2023-04-15T03:58:32;9.66;73.26
72650;SHT31;61467;50.674;4.618;2023-04-15T04:01:00;9.71;72.86
72650;SHT31;61467;50.674;4.618;2023-04-15T04:03:27;9.75;72.77
72650;SHT31;61467;50.674;4.618;2023-04-15T04:05:54;9.83;72.61
72650;SHT31;61467;50.674;4.618;2023-04-15T04:08:21;9.66;72.89
72650;SHT31;61467;50.674;4.618;2023-04-15T04:10:47;9.81;72.27
72650;SHT31;61467;50.674;4.618;2023-04-15T04:13:14;9.90;72.07
72650;SHT31;61467;50.674;4.618;2023-04-15T04:15:41;9.96;72.02
72650;SHT31;61467;50.674;4.618;2023-04-15T04:18:09;10.02;71.70
72650;SHT31;61467;50.674;4.618;2023-04-15T04:20:36;10.02;72.03
72650;SHT31;61467;50.674;4.618;2023-04-15T04:23:03;10.07;71.75
72650;SHT31;61467;50.674;4.618;2023-04-15T04:25:30;10.10;71.61
72650;SHT31;61467;50.674;4.618;2023-04-15T04:27:57;10.13;71.00
72650;SHT31;61467;50.674;4.618;2023-04-15T04:30:24;10.16;71.33
72650;SHT31;61467;50.674;4.618;2023-04-15T04:32:51;10.24;71.18
72650;SHT31;61467;50.674;4.618;2023-04-15T04:35:19;10.14;71.03
72650;SHT31;61467;50.674;4.618;2023-04-15T04:37:46;10.12;71.60
72650;SHT31;61467;50.674;4.618;2023-04-15T04:40:13;10.06;72.03
72650;SHT31;61467;50.674;4.618;2023-04-15T04:42:40;9.79;73.02
72650;SHT31;61467;50.674;4.618;2023-04-15T04:45:07;9.38;74.68
72650;SHT31;61467;50.674;4.618;2023-04-15T04:47:34;9.61;74.25
72650;SHT31;61467;50.674;4.618;2023-04-15T04:50:01;9.90;73.21
72650;SHT31;61467;50.674;4.618;2023-04-15T04:52:30;9.92;73.36
72650;SHT31;61467;50.674;4.618;2023-04-15T04:54:56;10.00;73.50
72650;SHT31;61467;50.674;4.618;2023-04-15T04:57:23;9.97;73.24
72650;SHT31;61467;50.674;4.618;2023-04-15T04:59:50;10.00;73.32
72650;SHT31;61467;50.674;4.618;2023-04-15T05:02:17;10.07;73.30
72650;SHT31;61467;50.674;4.618;2023-04-15T05:04:45;10.03;73.10
72650;SHT31;61467;50.674;4.618;2023-04-15T05:07:13;10.16;72.64
72650;SHT31;61467;50.674;4.618;2023-04-15T05:09:41;10.16;72.68
72650;SHT31;61467;50.674;4.618;2023-04-15T05:12:08;10.12;72.81
72650;SHT31;61467;50.674;4.618;2023-04-15T05:14:39;10.14;73.07
72650;SHT31;61467;50.674;4.618;2023-04-15T05:17:06;10.12;72.96
72650;SHT31;61467;50.674;4.618;2023-04-15T05:19:33;10.13;72.63
72650;SHT31;61467;50.674;4.618;2023-04-15T05:22:00;10.18;72.43
72650;SHT31;61467;50.674;4.618;2023-04-15T05:24:26;10.12;72.90
72650;SHT31;61467;50.674;4.618;2023-04-15T05:26:55;10.16;72.63
72650;SHT31;61467;50.674;4.618;2023-04-15T05:29:23;10.24;72.57
72650;SHT31;61467;50.674;4.618;2023-04-15T05:31:50;10.21;72.82
72650;SHT31;61467;50.674;4.618;2023-04-15T05:34:17;10.21;72.11
72650;SHT31;61467;50.674;4.618;2023-04-15T05:36:43;10.21;71.82
72650;SHT31;61467;50.674;4.618;2023-04-15T05:39:10;10.24;71.74
72650;SHT31;61467;50.674;4.618;2023-04-15T05:41:37;10.13;71.51
72650;SHT31;61467;50.674;4.618;2023-04-15T05:44:05;10.10;71.62
72650;SHT31;61467;50.674;4.618;2023-04-15T05:46:32;10.14;71.93
72650;SHT31;61467;50.674;4.618;2023-04-15T05:48:59;9.99;71.63
72650;SHT31;61467;50.674;4.618;2023-04-15T05:51:26;10.00;71.93
72650;SHT31;61467;50.674;4.618;2023-04-15T05:53:53;10.02;71.99
72650;SHT31;61467;50.674;4.618;2023-04-15T05:56:20;10.06;71.78
72650;SHT31;61467;50.674;4.618;2023-04-15T05:58:46;10.00;72.00
72650;SHT31;61467;50.674;4.618;2023-04-15T06:01:15;10.03;71.56
72650;SHT31;61467;50.674;4.618;2023-04-15T06:03:42;10.17;71.18
72650;SHT31;61467;50.674;4.618;2023-04-15T06:06:09;10.18;70.75
72650;SHT31;61467;50.674;4.618;2023-04-15T06:08:36;9.93;70.06
72650;SHT31;61467;50.674;4.618;2023-04-15T06:11:02;10.03;69.93
72650;SHT31;61467;50.674;4.618;2023-04-15T06:13:31;9.89;71.24
72650;SHT31;61467;50.674;4.618;2023-04-15T06:15:59;10.04;70.62
72650;SHT31;61467;50.674;4.618;2023-04-15T06:18:27;10.13;70.95
72650;SHT31;61467;50.674;4.618;2023-04-15T06:20:54;10.14;71.35
72650;SHT31;61467;50.674;4.618;2023-04-15T06:23:21;10.29;70.09
72650;SHT31;61467;50.674;4.618;2023-04-15T06:25:48;10.29;69.48
72650;SHT31;61467;50.674;4.618;2023-04-15T06:28:15;10.30;69.48
72650;SHT31;61467;50.674;4.618;2023-04-15T06:30:41;10.36;68.72
72650;SHT31;61467;50.674;4.618;2023-04-15T06:33:08;10.24;68.64
72650;SHT31;61467;50.674;4.618;2023-04-15T06:35:36;10.24;69.42
72650;SHT31;61467;50.674;4.618;2023-04-15T06:38:03;10.30;68.64
72650;SHT31;61467;50.674;4.618;2023-04-15T06:40:30;10.44;68.67
72650;SHT31;61467;50.674;4.618;2023-04-15T06:42:57;10.45;68.41
72650;SHT31;61467;50.674;4.618;2023-04-15T06:45:24;10.48;68.22
72650;SHT31;61467;50.674;4.618;2023-04-15T06:47:51;10.24;68.57
72650;SHT31;61467;50.674;4.618;2023-04-15T06:50:18;10.47;68.94
72650;SHT31;61467;50.674;4.618;2023-04-15T06:52:49;10.36;68.86
72650;SHT31;61467;50.674;4.618;2023-04-15T06:55:16;10.32;69.14
72650;SHT31;61467;50.674;4.618;2023-04-15T06:57:43;10.00;70.40
72650;SHT31;61467;50.674;4.618;2023-04-15T07:00:11;10.27;70.65
72650;SHT31;61467;50.674;4.618;2023-04-15T07:02:37;10.30;70.63
72650;SHT31;61467;50.674;4.618;2023-04-15T07:05:05;9.76;71.71
72650;SHT31;61467;50.674;4.618;2023-04-15T07:07:32;9.87;71.56
72650;SHT31;61467;50.674;4.618;2023-04-15T07:10:01;10.02;70.83
72650;SHT31;61467;50.674;4.618;2023-04-15T07:12:28;10.23;69.90
72650;SHT31;61467;50.674;4.618;2023-04-15T07:14:55;10.37;69.59
72650;SHT31;61467;50.674;4.618;2023-04-15T07:17:22;10.14;69.57
72650;SHT31;61467;50.674;4.618;2023-04-15T07:19:49;10.51;68.50
72650;SHT31;61467;50.674;4.618;2023-04-15T07:22:16;10.27;68.15
72650;SHT31;61467;50.674;4.618;2023-04-15T07:24:43;10.26;68.91
72650;SHT31;61467;50.674;4.618;2023-04-15T07:27:11;10.41;68.58
72650;SHT31;61467;50.674;4.618;2023-04-15T07:29:38;10.84;67.06
72650;SHT31;61467;50.674;4.618;2023-04-15T07:32:05;11.11;66.06
72650;SHT31;61467;50.674;4.618;2023-04-15T07:34:32;11.43;65.20
72650;SHT31;61467;50.674;4.618;2023-04-15T07:36:59;11.57;65.62
72650;SHT31;61467;50.674;4.618;2023-04-15T07:39:26;11.84;65.00
72650;SHT31;61467;50.674;4.618;2023-04-15T07:41:53;11.94;64.85
72650;SHT31;61467;50.674;4.618;2023-04-15T07:44:22;12.36;63.80
72650;SHT31;61467;50.674;4.618;2023-04-15T07:46:48;12.45;61.02
72650;SHT31;61467;50.674;4.618;2023-04-15T07:49:15;12.29;60.87
72650;SHT31;61467;50.674;4.618;2023-04-15T07:51:43;12.86;59.50
72650;SHT31;61467;50.674;4.618;2023-04-15T07:54:11;12.62;59.62
72650;SHT31;61467;50.674;4.618;2023-04-15T07:56:37;13.13;61.16
72650;SHT31;61467;50.674;4.618;2023-04-15T07:59:04;13.20;59.03
72650;SHT31;61467;50.674;4.618;2023-04-15T08:01:33;14.16;57.54
72650;SHT31;61467;50.674;4.618;2023-04-15T08:04:00;14.24;53.57
72650;SHT31;61467;50.674;4.618;2023-04-15T08:06:27;13.57;56.79
72650;SHT31;61467;50.674;4.618;2023-04-15T08:08:54;13.85;55.73
72650;SHT31;61467;50.674;4.618;2023-04-15T08:11:22;13.64;55.10
72650;SHT31;61467;50.674;4.618;2023-04-15T08:13:51;13.50;56.75
72650;SHT31;61467;50.674;4.618;2023-04-15T08:16:19;13.14;56.92
72650;SHT31;61467;50.674;4.618;2023-04-15T08:18:49;12.67;58.91
72650;SHT31;61467;50.674;4.618;2023-04-15T08:21:16;12.49;60.11
72650;SHT31;61467;50.674;4.618;2023-04-15T08:23:43;12.43;60.51
72650;SHT31;61467;50.674;4.618;2023-04-15T08:26:11;12.39;61.22
72650;SHT31;61467;50.674;4.618;2023-04-15T08:28:40;12.15;60.65
72650;SHT31;61467;50.674;4.618;2023-04-15T08:31:07;12.14;62.17
72650;SHT31;61467;50.674;4.618;2023-04-15T08:33:34;12.34;62.11
72650;SHT31;61467;50.674;4.618;2023-04-15T08:36:03;12.39;60.90
72650;SHT31;61467;50.674;4.618;2023-04-15T08:38:30;12.84;61.76
72650;SHT31;61467;50.674;4.618;2023-04-15T08:40:58;13.10;60.40
72650;SHT31;61467;50.674;4.618;2023-04-15T08:43:27;13.14;59.66
72650;SHT31;61467;50.674;4.618;2023-04-15T08:45:55;13.40;58.94
72650;SHT31;61467;50.674;4.618;2023-04-15T08:48:24;13.81;57.01
72650;SHT31;61467;50.674;4.618;2023-04-15T08:50:54;14.24;56.21
72650;SHT31;61467;50.674;4.618;2023-04-15T08:53:23;14.43;54.88
72650;SHT31;61467;50.674;4.618;2023-04-15T08:55:51;14.16;56.94
72650;SHT31;61467;50.674;4.618;2023-04-15T08:58:18;13.87;56.61
72650;SHT31;61467;50.674;4.618;2023-04-15T09:00:45;13.82;56.40
72650;SHT31;61467;50.674;4.618;2023-04-15T09:03:13;14.48;52.40
72650;SHT31;61467;50.674;4.618;2023-04-15T09:05:40;14.24;51.62
72650;SHT31;61467;50.674;4.618;2023-04-15T09:08:08;14.98;51.51
72650;SHT31;61467;50.674;4.618;2023-04-15T09:10:36;15.35;51.46
72650;SHT31;61467;50.674;4.618;2023-04-15T09:13:03;15.02;50.32
72650;SHT31;61467;50.674;4.618;2023-04-15T09:15:31;14.92;48.02
72650;SHT31;61467;50.674;4.618;2023-04-15T09:17:58;14.88;49.61
72650;SHT31;61467;50.674;4.618;2023-04-15T09:20:25;15.12;49.23
72650;SHT31;61467;50.674;4.618;2023-04-15T09:22:52;15.02;50.77
72650;SHT31;61467;50.674;4.618;2023-04-15T09:25:28;14.95;50.87
72650;SHT31;61467;50.674;4.618;2023-04-15T09:28:00;15.25;49.57
72650;SHT31;61467;50.674;4.618;2023-04-15T09:30:27;15.15;49.81
72650;SHT31;61467;50.674;4.618;2023-04-15T09:32:56;15.96;50.08
72650;SHT31;61467;50.674;4.618;2023-04-15T09:35:27;15.96;49.49
72650;SHT31;61467;50.674;4.618;2023-04-15T09:38:02;16.15;49.68
72650;SHT31;61467;50.674;4.618;2023-04-15T09:40:33;16.10;48.85
72650;SHT31;61467;50.674;4.618;2023-04-15T09:43:02;15.71;49.06
72650;SHT31;61467;50.674;4.618;2023-04-15T09:45:30;15.74;48.98
72650;SHT31;61467;50.674;4.618;2023-04-15T09:47:59;15.62;47.54
72650;SHT31;61467;50.674;4.618;2023-04-15T09:50:40;16.07;48.89
72650;SHT31;61467;50.674;4.618;2023-04-15T09:53:09;16.21;48.79
72650;SHT31;61467;50.674;4.618;2023-04-15T09:55:37;15.80;49.47
72650;SHT31;61467;50.674;4.618;2023-04-15T09:58:16;16.03;47.14
72650;SHT31;61467;50.674;4.618;2023-04-15T10:00:46;15.62;48.95
72650;SHT31;61467;50.674;4.618;2023-04-15T10:03:14;15.69;49.24
72650;SHT31;61467;50.674;4.618;2023-04-15T10:05:44;15.76;47.13
72650;SHT31;61467;50.674;4.618;2023-04-15T10:08:14;15.73;47.70
72650;SHT31;61467;50.674;4.618;2023-04-15T10:10:41;15.79;47.32
72650;SHT31;61467;50.674;4.618;2023-04-15T10:13:10;15.54;48.45
72650;SHT31;61467;50.674;4.618;2023-04-15T10:15:37;15.18;48.61
72650;SHT31;61467;50.674;4.618;2023-04-15T10:18:06;15.11;47.76
72650;SHT31;61467;50.674;4.618;2023-04-15T10:20:34;14.94;47.90
72650;SHT31;61467;50.674;4.618;2023-04-15T10:23:02;14.82;47.50
72650;SHT31;61467;50.674;4.618;2023-04-15T10:25:29;14.98;48.20
72650;SHT31;61467;50.674;4.618;2023-04-15T10:27:59;15.18;48.68
72650;SHT31;61467;50.674;4.618;2023-04-15T10:30:27;15.29;49.08
72650;SHT31;61467;50.674;4.618;2023-04-15T10:32:56;15.67;48.54
72650;SHT31;61467;50.674;4.618;2023-04-15T10:35:23;15.80;47.31
72650;SHT31;61467;50.674;4.618;2023-04-15T10:37:50;15.60;46.47
72650;SHT31;61467;50.674;4.618;2023-04-15T10:40:28;15.28;48.06
72650;SHT31;61467;50.674;4.618;2023-04-15T10:42:57;15.35;48.87
72650;SHT31;61467;50.674;4.618;2023-04-15T10:45:33;15.44;48.53
72650;SHT31;61467;50.674;4.618;2023-04-15T10:48:02;15.32;48.76
72650;SHT31;61467;50.674;4.618;2023-04-15T10:50:31;15.46;48.81
72650;SHT31;61467;50.674;4.618;2023-04-15T10:52:58;15.59;49.00
72650;SHT31;61467;50.674;4.618;2023-04-15T10:55:31;15.60;47.80
72650;SHT31;61467;50.674;4.618;2023-04-15T10:57:59;15.69;47.39
72650;SHT31;61467;50.674;4.618;2023-04-15T11:00:30;15.98;47.30
72650;SHT31;61467;50.674;4.618;2023-04-15T11:02:58;15.98;45.19
72650;SHT31;61467;50.674;4.618;2023-04-15T11:05:50;15.90;42.78
72650;SHT31;61467;50.674;4.618;2023-04-15T11:08:17;15.89;44.14
72650;SHT31;61467;50.674;4.618;2023-04-15T11:10:53;16.04;41.89
72650;SHT31;61467;50.674;4.618;2023-04-15T11:13:24;15.91;41.73
72650;SHT31;61467;50.674;4.618;2023-04-15T11:15:59;16.01;42.77
72650;SHT31;61467;50.674;4.618;2023-04-15T11:18:31;16.01;41.90
72650;SHT31;61467;50.674;4.618;2023-04-15T11:21:03;16.01;42.13
72650;SHT31;61467;50.674;4.618;2023-04-15T11:23:38;16.05;42.11
72650;SHT31;61467;50.674;4.618;2023-04-15T11:26:06;16.14;41.21
72650;SHT31;61467;50.674;4.618;2023-04-15T11:28:36;16.01;39.59
72650;SHT31;61467;50.674;4.618;2023-04-15T11:31:10;16.00;37.12
72650;SHT31;61467;50.674;4.618;2023-04-15T11:33:44;16.14;36.35
72650;SHT31;61467;50.674;4.618;2023-04-15T11:36:11;16.38;37.30
72650;SHT31;61467;50.674;4.618;2023-04-15T11:38:41;16.49;35.62
72650;SHT31;61467;50.674;4.618;2023-04-15T11:41:08;16.41;34.67
72650;SHT31;61467;50.674;4.618;2023-04-15T11:43:35;16.73;35.83
72650;SHT31;61467;50.674;4.618;2023-04-15T11:46:02;16.80;34.72
72650;SHT31;61467;50.674;4.618;2023-04-15T11:48:33;16.63;34.08
72650;SHT31;61467;50.674;4.618;2023-04-15T11:51:02;16.77;34.50
72650;SHT31;61467;50.674;4.618;2023-04-15T11:53:38;16.68;34.18
72650;SHT31;61467;50.674;4.618;2023-04-15T11:56:06;16.77;34.46
72650;SHT31;61467;50.674;4.618;2023-04-15T11:58:34;16.61;34.42
72650;SHT31;61467;50.674;4.618;2023-04-15T12:01:03;16.76;34.17
72650;SHT31;61467;50.674;4.618;2023-04-15T12:03:36;16.99;34.90
72650;SHT31;61467;50.674;4.618;2023-04-15T12:06:08;16.96;35.81
72650;SHT31;61467;50.674;4.618;2023-04-15T12:08:52;17.27;35.02
72650;SHT31;61467;50.674;4.618;2023-04-15T12:11:30;16.93;33.03
72650;SHT31;61467;50.674;4.618;2023-04-15T12:14:02;16.68;31.91
72650;SHT31;61467;50.674;4.618;2023-04-15T12:16:29;16.99;28.40
72650;SHT31;61467;50.674;4.618;2023-04-15T12:18:58;17.16;27.58
72650;SHT31;61467;50.674;4.618;2023-04-15T12:21:26;17.34;27.66
72650;SHT31;61467;50.674;4.618;2023-04-15T12:23:55;17.26;28.04
72650;SHT31;61467;50.674;4.618;2023-04-15T12:26:26;17.31;27.93
72650;SHT31;61467;50.674;4.618;2023-04-15T12:28:54;17.55;29.22
72650;SHT31;61467;50.674;4.618;2023-04-15T12:31:22;17.74;28.46
72650;SHT31;61467;50.674;4.618;2023-04-15T12:33:49;17.33;27.16
72650;SHT31;61467;50.674;4.618;2023-04-15T12:36:17;17.03;29.26
72650;SHT31;61467;50.674;4.618;2023-04-15T12:38:44;17.40;31.12
72650;SHT31;61467;50.674;4.618;2023-04-15T12:41:11;17.48;28.19
72650;SHT31;61467;50.674;4.618;2023-04-15T12:43:38;17.62;28.69
72650;SHT31;61467;50.674;4.618;2023-04-15T12:46:05;17.61;28.63
72650;SHT31;61467;50.674;4.618;2023-04-15T12:48:32;17.67;30.64
72650;SHT31;61467;50.674;4.618;2023-04-15T12:50:59;17.96;29.88
72650;SHT31;61467;50.674;4.618;2023-04-15T12:53:27;18.03;29.38
72650;SHT31;61467;50.674;4.618;2023-04-15T12:55:54;18.32;31.45
72650;SHT31;61467;50.674;4.618;2023-04-15T12:58:21;18.17;32.30
72650;SHT31;61467;50.674;4.618;2023-04-15T13:00:48;18.51;32.26
72650;SHT31;61467;50.674;4.618;2023-04-15T13:03:15;18.20;30.95
72650;SHT31;61467;50.674;4.618;2023-04-15T13:05:42;17.68;30.11
72650;SHT31;61467;50.674;4.618;2023-04-15T13:08:09;17.78;30.24
72650;SHT31;61467;50.674;4.618;2023-04-15T13:10:37;17.85;30.99
72650;SHT31;61467;50.674;4.618;2023-04-15T13:13:04;17.95;30.06
72650;SHT31;61467;50.674;4.618;2023-04-15T13:15:31;17.89;28.91
72650;SHT31;61467;50.674;4.618;2023-04-15T13:17:58;17.93;30.39
72650;SHT31;61467;50.674;4.618;2023-04-15T13:20:25;17.91;30.00
72650;SHT31;61467;50.674;4.618;2023-04-15T13:22:52;17.96;30.34
72650;SHT31;61467;50.674;4.618;2023-04-15T13:25:19;18.59;29.42
72650;SHT31;61467;50.674;4.618;2023-04-15T13:27:48;18.57;28.94
72650;SHT31;61467;50.674;4.618;2023-04-15T13:30:15;18.73;30.04
72650;SHT31;61467;50.674;4.618;2023-04-15T13:32:42;18.40;28.55
72650;SHT31;61467;50.674;4.618;2023-04-15T13:35:09;18.05;27.02
72650;SHT31;61467;50.674;4.618;2023-04-15T13:37:36;18.13;27.05
72650;SHT31;61467;50.674;4.618;2023-04-15T13:40:04;18.19;28.49
72650;SHT31;61467;50.674;4.618;2023-04-15T13:42:32;18.03;28.99
72650;SHT31;61467;50.674;4.618;2023-04-15T13:45:00;18.01;28.72
72650;SHT31;61467;50.674;4.618;2023-04-15T13:47:27;17.96;29.63
72650;SHT31;61467;50.674;4.618;2023-04-15T13:49:54;18.12;30.59
72650;SHT31;61467;50.674;4.618;2023-04-15T13:52:21;18.17;31.77
72650;SHT31;61467;50.674;4.618;2023-04-15T13:54:48;18.60;31.77
72650;SHT31;61467;50.674;4.618;2023-04-15T13:57:16;18.03;30.87
72650;SHT31;61467;50.674;4.618;2023-04-15T13:59:43;18.17;31.11
72650;SHT31;61467;50.674;4.618;2023-04-15T14:02:11;17.88;29.24
72650;SHT31;61467;50.674;4.618;2023-04-15T14:04:38;17.93;29.47
72650;SHT31;61467;50.674;4.618;2023-04-15T14:07:05;18.47;29.96
72650;SHT31;61467;50.674;4.618;2023-04-15T14:09:32;18.39;28.74
72650;SHT31;61467;50.674;4.618;2023-04-15T14:11:58;18.20;30.49
72650;SHT31;61467;50.674;4.618;2023-04-15T14:14:26;18.29;32.85
72650;SHT31;61467;50.674;4.618;2023-04-15T14:16:56;18.67;34.48
72650;SHT31;61467;50.674;4.618;2023-04-15T14:19:29;18.33;30.95
72650;SHT31;61467;50.674;4.618;2023-04-15T14:21:56;18.19;32.80
72650;SHT31;61467;50.674;4.618;2023-04-15T14:24:23;18.36;35.31
72650;SHT31;61467;50.674;4.618;2023-04-15T14:26:50;18.34;34.01
72650;SHT31;61467;50.674;4.618;2023-04-15T14:29:17;18.36;33.07
72650;SHT31;61467;50.674;4.618;2023-04-15T14:31:44;18.53;33.60
72650;SHT31;61467;50.674;4.618;2023-04-15T14:34:11;18.03;33.06
72650;SHT31;61467;50.674;4.618;2023-04-15T14:36:39;17.64;34.06
72650;SHT31;61467;50.674;4.618;2023-04-15T14:39:06;17.96;34.39
72650;SHT31;61467;50.674;4.618;2023-04-15T14:41:33;18.70;35.23
72650;SHT31;61467;50.674;4.618;2023-04-15T14:44:00;18.17;32.45
72650;SHT31;61467;50.674;4.618;2023-04-15T14:46:27;18.53;34.61
72650;SHT31;61467;50.674;4.618;2023-04-15T14:48:54;18.54;33.62
72650;SHT31;61467;50.674;4.618;2023-04-15T14:51:22;18.60;32.17
72650;SHT31;61467;50.674;4.618;2023-04-15T14:53:50;18.37;33.49
72650;SHT31;61467;50.674;4.618;2023-04-15T14:56:17;18.63;32.23
72650;SHT31;61467;50.674;4.618;2023-04-15T14:58:43;18.26;31.40
72650;SHT31;61467;50.674;4.618;2023-04-15T15:01:10;17.68;29.95
72650;SHT31;61467;50.674;4.618;2023-04-15T15:03:37;17.79;31.15
72650;SHT31;61467;50.674;4.618;2023-04-15T15:06:04;17.38;30.59
72650;SHT31;61467;50.674;4.618;2023-04-15T15:08:34;17.12;32.86
72650;SHT31;61467;50.674;4.618;2023-04-15T15:11:02;17.64;33.11
72650;SHT31;61467;50.674;4.618;2023-04-15T15:13:31;18.36;31.73
72650;SHT31;61467;50.674;4.618;2023-04-15T15:15:57;17.55;31.89
72650;SHT31;61467;50.674;4.618;2023-04-15T15:18:24;17.92;34.29
72650;SHT31;61467;50.674;4.618;2023-04-15T15:20:51;17.57;34.98
72650;SHT31;61467;50.674;4.618;2023-04-15T15:23:18;18.14;35.82
72650;SHT31;61467;50.674;4.618;2023-04-15T15:25:45;18.36;33.60
72650;SHT31;61467;50.674;4.618;2023-04-15T15:28:14;18.02;33.86
72650;SHT31;61467;50.674;4.618;2023-04-15T15:30:40;18.43;33.61
72650;SHT31;61467;50.674;4.618;2023-04-15T15:33:07;18.53;31.48
72650;SHT31;61467;50.674;4.618;2023-04-15T15:35:34;18.02;31.06
72650;SHT31;61467;50.674;4.618;2023-04-15T15:38:01;18.74;32.84